createdAt,value
2019-03-16T00:00:10.926Z,100125.72
2019-03-16T00:02:42.709Z,100117.91
2019-03-16T00:05:14.493Z,100131.03
2019-03-16T00:07:46.206Z,100117.97
2019-03-16T00:10:17.801Z,100128.11
2019-03-16T00:12:49.571Z,100132.51
2019-03-16T00:15:21.187Z,100122.86
2019-03-16T00:17:53.184Z,100128.11
2019-03-16T00:20:24.782Z,100124.63
2019-03-16T00:22:56.695Z,100125.48
2019-03-16T00:25:28.314Z,100126.41
2019-03-16T00:27:59.941Z,100134.74
2019-03-16T00:30:31.647Z,100133.03
2019-03-16T00:33:03.357Z,100129.64
2019-03-16T00:35:34.994Z,100123.14
2019-03-16T00:38:06.685Z,100128.91
2019-03-16T00:40:38.549Z,100125.98
2019-03-16T00:43:10.225Z,100128.16
2019-03-16T00:45:41.840Z,100122.97
2019-03-16T00:48:13.622Z,100124.73
2019-03-16T00:50:45.607Z,100132.16
2019-03-16T00:53:17.237Z,100126.84
2019-03-16T00:55:48.887Z,100127.76
2019-03-16T00:58:20.481Z,100128.52
2019-03-16T01:00:52.241Z,100132.46
2019-03-16T01:03:24.232Z,100127.67
2019-03-16T01:05:56.052Z,100129.47
2019-03-16T01:08:27.673Z,100127.30
2019-03-16T01:10:59.386Z,100135.24
2019-03-16T01:13:31.007Z,100133.53
2019-03-16T01:16:02.791Z,100137.92
2019-03-16T01:18:34.541Z,100134.84
2019-03-16T01:21:06.417Z,100136.71
2019-03-16T01:23:38.303Z,100136.71
2019-03-16T01:26:09.919Z,100140.70
2019-03-16T01:28:41.590Z,100138.55
2019-03-16T01:31:13.309Z,100131.13
2019-03-16T01:33:44.962Z,100135.06
2019-03-16T01:36:16.590Z,100131.19
2019-03-16T01:38:48.210Z,100134.27
2019-03-16T01:41:19.842Z,100141.69
2019-03-16T01:43:51.762Z,100143.00
2019-03-16T01:46:23.582Z,100135.52
2019-03-16T01:48:55.199Z,100139.91
2019-03-16T01:51:26.891Z,100141.23
2019-03-16T01:53:58.483Z,100136.44
2019-03-16T01:56:30.208Z,100139.45
2019-03-16T01:59:01.837Z,100145.27
2019-03-16T02:01:33.924Z,100151.43
2019-03-16T02:04:07.058Z,100147.09
2019-03-16T02:06:38.909Z,100128.32
2019-03-16T02:09:10.507Z,100144.07
2019-03-16T02:11:42.093Z,100138.82
2019-03-16T02:14:13.762Z,100135.80
2019-03-16T02:16:45.511Z,100133.73
2019-03-16T02:19:18.271Z,100133.33
2019-03-16T02:21:50.398Z,100125.05
2019-03-16T02:24:22.452Z,100119.41
2019-03-16T02:26:54.281Z,100125.52
2019-03-16T02:29:26.006Z,100122.49
2019-03-16T02:31:57.624Z,100129.15
2019-03-16T02:34:29.362Z,100125.73
2019-03-16T02:37:00.979Z,100130.98
2019-03-16T02:39:33.000Z,100132.29
2019-03-16T02:42:04.603Z,100138.00
2019-03-16T02:44:36.311Z,100139.31
2019-03-16T02:47:07.961Z,100130.58
2019-03-16T02:49:39.652Z,100133.36
2019-03-16T02:52:11.249Z,100137.75
2019-03-16T02:54:42.854Z,100136.84
2019-03-16T02:57:14.512Z,100135.44
2019-03-16T02:59:46.131Z,100137.69
2019-03-16T03:02:17.961Z,100140.31
2019-03-16T03:04:49.720Z,100145.56
2019-03-16T03:07:21.385Z,100139.38
2019-03-16T03:09:53.028Z,100134.67
2019-03-16T03:12:24.581Z,100146.48
2019-03-16T03:14:56.201Z,100135.80
2019-03-16T03:17:27.799Z,100145.23
2019-03-16T03:19:59.664Z,100133.42
2019-03-16T03:22:31.427Z,100140.44
2019-03-16T03:25:03.050Z,100130.86
2019-03-16T03:27:34.823Z,100131.31
2019-03-16T03:30:08.084Z,100135.34
2019-03-16T03:32:39.937Z,100137.97
2019-03-16T03:35:11.884Z,100132.32
2019-03-16T03:37:43.578Z,100122.22
2019-03-16T03:40:15.180Z,100128.33
2019-03-16T03:42:46.750Z,100120.05
2019-03-16T03:45:18.471Z,100120.05
2019-03-16T03:47:50.101Z,100116.12
2019-03-16T03:50:21.983Z,100130.55
2019-03-16T03:52:53.637Z,100112.18
2019-03-16T03:55:25.258Z,100121.77
2019-03-16T03:57:56.951Z,100120.00
2019-03-16T04:00:28.544Z,100114.19
2019-03-16T04:03:00.157Z,100114.19
2019-03-16T04:05:31.762Z,100105.25
2019-03-16T04:08:03.504Z,100113.52
2019-03-16T04:10:35.094Z,100116.08
2019-03-16T04:13:08.246Z,100123.90
2019-03-16T04:15:41.479Z,100128.59
2019-03-16T04:18:13.094Z,100129.45
2019-03-16T04:20:44.684Z,100127.22
2019-03-16T04:23:16.584Z,100136.35
2019-03-16T04:25:48.206Z,100139.73
2019-03-16T04:28:19.862Z,100138.82
2019-03-16T04:30:51.532Z,100135.28
2019-03-16T04:33:23.238Z,100134.36
2019-03-16T04:35:54.858Z,100132.89
2019-03-16T04:38:26.651Z,100143.34
2019-03-16T04:40:58.235Z,100138.94
2019-03-16T04:43:29.849Z,100139.70
2019-03-16T04:46:01.424Z,100133.98
2019-03-16T04:48:33.057Z,100135.24
2019-03-16T04:51:04.670Z,100135.24
2019-03-16T04:53:36.450Z,100139.97
2019-03-16T04:56:08.105Z,100138.66
2019-03-16T04:58:39.806Z,100132.39
2019-03-16T05:01:11.390Z,100128.39
2019-03-16T05:03:43.014Z,100134.41
2019-03-16T05:06:14.581Z,100134.80
2019-03-16T05:08:46.420Z,100137.83
2019-03-16T05:11:18.121Z,100142.55
2019-03-16T05:13:49.720Z,100147.66
2019-03-16T05:16:21.480Z,100151.12
2019-03-16T05:18:53.133Z,100149.75
2019-03-16T05:21:24.746Z,100165.42
2019-03-16T05:23:56.788Z,100156.63
2019-03-16T05:26:28.627Z,100154.45
2019-03-16T05:29:00.229Z,100160.16
2019-03-16T05:31:31.853Z,100162.80
2019-03-16T05:34:03.548Z,100158.95
2019-03-16T05:36:35.293Z,100160.72
2019-03-16T05:39:09.473Z,100167.74
2019-03-16T05:41:41.298Z,100181.34
2019-03-16T05:44:12.891Z,100181.49
2019-03-16T05:46:44.544Z,100184.94
2019-03-16T05:49:16.225Z,100177.55
2019-03-16T05:51:47.885Z,100168.81
2019-03-16T05:54:19.478Z,100174.98
2019-03-16T05:56:51.340Z,100174.53
2019-03-16T05:59:23.032Z,100182.86
2019-03-16T06:01:54.670Z,100181.95
2019-03-16T06:04:26.353Z,100194.62
2019-03-16T06:06:58.089Z,100185.89
2019-03-16T06:09:29.709Z,100194.62
2019-03-16T06:12:01.603Z,100189.27
2019-03-16T06:14:33.448Z,100187.44
2019-03-16T06:17:05.132Z,100198.80
2019-03-16T06:19:36.721Z,100192.63
2019-03-16T06:22:08.684Z,100192.94
2019-03-16T06:24:40.324Z,100188.47
2019-03-16T06:27:12.377Z,100185.84
2019-03-16T06:29:44.034Z,100177.41
2019-03-16T06:32:15.677Z,100185.69
2019-03-16T06:34:47.369Z,100184.71
2019-03-16T06:37:19.032Z,100180.22
2019-03-16T06:39:50.651Z,100182.78
2019-03-16T06:42:22.484Z,100187.05
2019-03-16T06:44:54.147Z,100201.02
2019-03-16T06:47:25.782Z,100197.01
2019-03-16T06:49:57.515Z,100202.33
2019-03-16T06:52:29.223Z,100200.95
2019-03-16T06:55:01.005Z,100208.44
2019-03-16T06:57:32.621Z,100209.84
2019-03-16T07:00:04.681Z,100205.51
2019-03-16T07:02:36.364Z,100218.31
2019-03-16T07:05:09.579Z,100215.38
2019-03-16T07:07:41.340Z,100216.45
2019-03-16T07:10:12.989Z,100215.66
2019-03-16T07:12:44.658Z,100220.58
2019-03-16T07:15:16.464Z,100209.70
2019-03-16T07:17:48.155Z,100210.63
2019-03-16T07:20:19.775Z,100212.39
2019-03-16T07:22:51.565Z,100218.95
2019-03-16T07:25:23.198Z,100234.10
2019-03-16T07:27:54.917Z,100219.59
2019-03-16T07:30:26.914Z,100227.32
2019-03-16T07:32:58.640Z,100228.42
2019-03-16T07:35:30.290Z,100236.17
2019-03-16T07:38:02.027Z,100238.65
2019-03-16T07:40:33.834Z,100239.84
2019-03-16T07:43:05.625Z,100238.43
2019-03-16T07:45:37.498Z,100246.19
2019-03-16T07:48:09.159Z,100249.67
2019-03-16T07:50:40.823Z,100260.64
2019-03-16T07:53:12.563Z,100264.58
2019-03-16T07:55:44.286Z,100274.17
2019-03-16T07:58:15.913Z,100259.78
2019-03-16T08:00:49.589Z,100276.80
2019-03-16T08:03:21.210Z,100281.11
2019-03-16T08:05:52.870Z,100284.23
2019-03-16T08:08:24.582Z,100287.22
2019-03-16T08:10:56.205Z,100285.91
2019-03-16T08:13:28.062Z,100285.91
2019-03-16T08:15:59.885Z,100279.34
2019-03-16T08:18:31.653Z,100273.32
2019-03-16T08:21:03.402Z,100296.11
2019-03-16T08:23:36.233Z,100280.74
2019-03-16T08:26:07.924Z,100280.66
2019-03-16T08:28:39.686Z,100288.88
2019-03-16T08:31:11.989Z,100290.43
2019-03-16T08:33:43.760Z,100295.06
2019-03-16T08:36:15.483Z,100289.91
2019-03-16T08:38:47.151Z,100286.36
2019-03-16T08:41:19.259Z,100288.89
2019-03-16T08:43:51.095Z,100284.44
2019-03-16T08:46:23.429Z,100282.56
2019-03-16T08:48:55.182Z,100287.76
2019-03-16T08:51:26.922Z,100298.27
2019-03-16T08:53:58.581Z,100290.39
2019-03-16T08:56:30.215Z,100291.24
2019-03-16T08:59:01.921Z,100288.55
2019-03-16T09:01:33.669Z,100285.47
2019-03-16T09:04:05.746Z,100285.01
2019-03-16T09:06:37.424Z,100291.13
2019-03-16T09:09:10.070Z,100279.59
2019-03-16T09:11:41.674Z,100281.23
2019-03-16T09:14:13.385Z,100283.31
2019-03-16T09:16:45.283Z,100259.98
2019-03-16T09:19:17.677Z,100268.11
2019-03-16T09:21:49.473Z,100269.73
2019-03-16T09:24:21.303Z,100250.77
2019-03-16T09:26:52.923Z,100248.77
2019-03-16T09:29:24.579Z,100260.38
2019-03-16T09:31:56.274Z,100255.58
2019-03-16T09:34:28.669Z,100257.61
2019-03-16T09:37:00.717Z,100243.01
2019-03-16T09:39:32.432Z,100233.95
2019-03-16T09:42:04.176Z,100230.30
2019-03-16T09:44:36.087Z,100240.58
2019-03-16T09:47:07.797Z,100239.34
2019-03-16T09:49:40.299Z,100245.61
2019-03-16T09:52:12.060Z,100256.07
2019-03-16T09:54:43.726Z,100253.51
2019-03-16T09:57:15.359Z,100245.39
2019-03-16T09:59:46.991Z,100252.75
2019-03-16T10:02:18.647Z,100250.42
2019-03-16T10:04:50.316Z,100256.32
2019-03-16T10:07:22.462Z,100240.98
2019-03-16T10:09:54.124Z,100237.50
2019-03-16T10:12:25.863Z,100234.41
2019-03-16T10:14:57.640Z,100237.50
2019-03-16T10:17:29.400Z,100242.61
2019-03-16T10:20:01.187Z,100249.36
2019-03-16T10:22:33.648Z,100250.91
2019-03-16T10:25:05.485Z,100257.63
2019-03-16T10:27:37.158Z,100269.34
2019-03-16T10:30:10.547Z,100265.91
2019-03-16T10:32:42.261Z,100260.80
2019-03-16T10:35:14.012Z,100251.80
2019-03-16T10:37:46.282Z,100251.89
2019-03-16T10:40:18.528Z,100252.04
2019-03-16T10:42:50.199Z,100256.31
2019-03-16T10:45:21.879Z,100261.87
2019-03-16T10:47:53.444Z,100257.98
2019-03-16T10:50:25.299Z,100247.78
2019-03-16T10:52:57.811Z,100236.08
2019-03-16T10:55:29.614Z,100239.78
2019-03-16T10:58:01.374Z,100237.29
2019-03-16T11:00:33.028Z,100232.20
2019-03-16T11:03:04.753Z,100219.45
2019-03-16T11:05:36.409Z,100220.19
2019-03-16T11:08:08.917Z,100214.91
2019-03-16T11:10:40.603Z,100213.08
2019-03-16T11:13:12.336Z,100210.39
2019-03-16T11:15:44.002Z,100196.95
2019-03-16T11:18:15.727Z,100208.34
2019-03-16T11:20:47.371Z,100208.55
2019-03-16T11:23:19.903Z,100212.09
2019-03-16T11:25:51.611Z,100198.95
2019-03-16T11:28:23.288Z,100186.63
2019-03-16T11:30:54.962Z,100186.63
2019-03-16T11:33:26.638Z,100173.59
2019-03-16T11:35:58.394Z,100168.50
2019-03-16T11:38:30.054Z,100164.55
2019-03-16T11:41:02.457Z,100173.63
2019-03-16T11:43:34.099Z,100152.66
2019-03-16T11:46:05.852Z,100154.86
2019-03-16T11:48:37.734Z,100162.31
2019-03-16T11:51:09.438Z,100160.20
2019-03-16T11:53:41.224Z,100156.09
2019-03-16T11:56:18.313Z,100152.20
2019-03-16T11:58:46.920Z,100147.01
2019-03-16T12:01:18.657Z,100155.09
2019-03-16T12:03:51.944Z,100147.64
2019-03-16T12:06:23.552Z,100150.28
2019-03-16T12:08:55.615Z,100170.68
2019-03-16T12:11:28.062Z,100156.63
2019-03-16T12:13:59.894Z,100158.80
2019-03-16T12:16:32.163Z,100141.19
2019-03-16T12:19:03.947Z,100142.70
2019-03-16T12:21:35.915Z,100138.07
2019-03-16T12:24:07.669Z,100139.50
2019-03-16T12:26:40.048Z,100146.59
2019-03-16T12:29:11.872Z,100147.55
2019-03-16T12:31:43.679Z,100137.64
2019-03-16T12:34:15.599Z,100129.08
2019-03-16T12:36:47.320Z,100127.27
2019-03-16T12:39:19.162Z,100134.55
2019-03-16T12:41:51.442Z,100124.82
2019-03-16T12:44:23.135Z,100110.30
2019-03-16T12:46:54.796Z,100118.03
2019-03-16T12:49:26.454Z,100116.23
2019-03-16T12:51:58.433Z,100109.37
2019-03-16T12:54:30.105Z,100110.98
2019-03-16T12:57:02.567Z,100108.34
2019-03-16T12:59:45.966Z,100099.54
2019-03-16T13:02:07.665Z,100088.22
2019-03-16T13:04:39.424Z,100091.53
2019-03-16T13:07:11.142Z,100092.56
2019-03-16T13:09:42.869Z,100093.59
2019-03-16T13:12:15.379Z,100095.58
2019-03-16T13:14:47.091Z,100101.63
2019-03-16T13:17:18.873Z,100104.64
2019-03-16T13:19:50.583Z,100099.45
2019-03-16T13:22:22.438Z,100089.73
2019-03-16T13:24:54.057Z,100085.30
2019-03-16T13:27:26.518Z,100090.59
2019-03-16T13:29:59.384Z,100076.34
2019-03-16T13:32:31.210Z,100092.02
2019-03-16T13:35:02.999Z,100083.53
2019-03-16T13:37:34.857Z,100083.81
2019-03-16T13:40:07.865Z,100074.86
2019-03-16T13:42:40.802Z,100073.16
2019-03-16T13:45:12.975Z,100072.86
2019-03-16T13:47:44.800Z,100071.16
2019-03-16T13:50:16.515Z,100056.55
2019-03-16T13:52:48.553Z,100053.45
2019-03-16T13:55:20.250Z,100057.48
2019-03-16T13:57:52.098Z,100046.46
2019-03-16T14:00:24.596Z,100060.13
2019-03-16T14:02:56.383Z,100051.36
2019-03-16T14:05:28.031Z,100053.73
2019-03-16T14:07:59.767Z,100056.92
2019-03-16T14:10:31.846Z,100037.62
2019-03-16T14:13:03.588Z,100032.06
2019-03-16T14:15:35.685Z,100036.77
2019-03-16T14:18:07.319Z,100029.29
2019-03-16T14:20:39.053Z,100017.88
2019-03-16T14:23:10.889Z,100016.27
2019-03-16T14:25:42.921Z,100014.76
2019-03-16T14:28:15.391Z,100011.09
2019-03-16T14:30:47.788Z,99997.71
2019-03-16T14:33:19.659Z,100017.20
2019-03-16T14:35:51.318Z,100004.77
2019-03-16T14:38:23.059Z,100007.21
2019-03-16T14:40:54.695Z,99997.52
2019-03-16T14:43:26.385Z,99977.73
2019-03-16T14:45:58.735Z,99989.89
2019-03-16T14:48:30.592Z,99981.86
2019-03-16T14:51:02.288Z,99971.14
2019-03-16T14:53:34.385Z,99977.63
2019-03-16T14:56:06.016Z,99966.98
2019-03-16T14:58:37.642Z,99968.39
2019-03-16T15:01:10.035Z,99963.70
2019-03-16T15:03:41.690Z,99954.16
2019-03-16T15:06:13.412Z,99953.31
2019-03-16T15:08:45.069Z,99943.34
2019-03-16T15:11:16.809Z,99939.21
2019-03-16T15:13:48.472Z,99944.19
2019-03-16T15:16:20.660Z,99948.81
2019-03-16T15:18:52.266Z,99935.91
2019-03-16T15:21:23.928Z,99940.04
2019-03-16T15:23:55.947Z,99933.27
2019-03-16T15:26:27.627Z,99927.80
2019-03-16T15:28:59.291Z,99937.20
2019-03-16T15:31:31.293Z,99923.75
2019-03-16T15:34:02.948Z,99930.42
2019-03-16T15:36:34.685Z,99924.38
2019-03-16T15:39:08.528Z,99920.93
2019-03-16T15:41:40.248Z,99912.72
2019-03-16T15:44:11.975Z,99916.75
2019-03-16T15:46:44.376Z,99905.94
2019-03-16T15:49:16.022Z,99898.30
2019-03-16T15:51:48.481Z,99903.88
2019-03-16T15:54:20.127Z,99893.05
2019-03-16T15:56:51.920Z,99894.66
2019-03-16T15:59:23.702Z,99888.33
2019-03-16T16:01:56.088Z,99890.89
2019-03-16T16:04:27.842Z,99882.51
2019-03-16T16:06:59.483Z,99869.33
2019-03-16T16:09:31.500Z,99867.89
2019-03-16T16:12:04.453Z,99860.09
2019-03-16T16:14:36.347Z,99859.72
2019-03-16T16:17:08.723Z,99856.89
2019-03-16T16:19:40.403Z,99843.03
2019-03-16T16:22:12.127Z,99841.06
2019-03-16T16:24:44.029Z,99835.03
2019-03-16T16:27:15.712Z,99824.60
2019-03-16T16:29:47.433Z,99822.31
2019-03-16T16:32:19.207Z,99821.84
2019-03-16T16:34:51.314Z,99820.06
2019-03-16T16:37:22.985Z,99816.49
2019-03-16T16:39:54.726Z,99815.55
2019-03-16T16:42:26.422Z,99819.52
2019-03-16T16:44:58.121Z,99810.20
2019-03-16T16:47:29.757Z,99810.28
2019-03-16T16:50:02.183Z,99809.14
2019-03-16T16:52:33.903Z,99802.20
2019-03-16T16:55:05.691Z,99807.64
2019-03-16T16:57:37.372Z,99803.89
2019-03-16T17:00:15.784Z,99803.04
2019-03-16T17:02:47.494Z,99805.30
2019-03-16T17:05:19.774Z,99801.89
2019-03-16T17:07:51.505Z,99802.39
2019-03-16T17:10:23.433Z,99797.20
2019-03-16T17:12:55.335Z,99794.66
2019-03-16T17:15:27.065Z,99793.92
2019-03-16T17:17:58.761Z,99800.12
2019-03-16T17:20:31.232Z,99796.73
2019-03-16T17:23:03.123Z,99790.73
2019-03-16T17:25:35.352Z,99799.36
2019-03-16T17:28:06.989Z,99797.39
2019-03-16T17:30:38.802Z,99793.64
2019-03-16T17:33:10.523Z,99793.80
2019-03-16T17:35:42.830Z,99795.41
2019-03-16T17:38:14.472Z,99792.98
2019-03-16T17:40:46.389Z,99791.83
2019-03-16T17:43:18.104Z,99797.30
2019-03-16T17:45:49.855Z,99786.84
2019-03-16T17:48:21.699Z,99789.67
2019-03-16T17:50:53.445Z,99782.37
2019-03-16T17:53:25.549Z,99781.25
2019-03-16T17:55:57.287Z,99784.08
2019-03-16T17:58:29.077Z,99781.14
2019-03-16T18:01:00.792Z,99783.59
2019-03-16T18:03:32.438Z,99783.76
2019-03-16T18:06:04.210Z,99783.11
2019-03-16T18:08:36.568Z,99777.19
2019-03-16T18:11:08.226Z,99786.21
2019-03-16T18:13:40.003Z,99783.36
2019-03-16T18:16:11.763Z,99779.30
2019-03-16T18:18:43.536Z,99787.08
2019-03-16T18:21:15.345Z,99786.23
2019-03-16T18:23:47.898Z,99789.67
2019-03-16T18:26:19.697Z,99785.15
2019-03-16T18:28:51.419Z,99778.07
2019-03-16T18:31:23.059Z,99766.97
2019-03-16T18:33:54.775Z,99768.55
2019-03-16T18:36:26.803Z,99767.42
2019-03-16T18:38:59.277Z,99765.91
2019-03-16T18:41:30.967Z,99765.22
2019-03-16T18:44:02.745Z,99771.13
2019-03-16T18:46:34.463Z,99765.56
2019-03-16T18:49:06.301Z,99763.89
2019-03-16T18:51:38.031Z,99757.86
2019-03-16T18:54:10.430Z,99750.44
2019-03-16T18:56:42.165Z,99745.64
2019-03-16T18:59:14.108Z,99748.73
2019-03-16T19:01:45.968Z,99740.95
2019-03-16T19:04:17.644Z,99740.64
2019-03-16T19:06:49.895Z,99743.00
2019-03-16T19:09:22.303Z,99736.19
2019-03-16T19:11:54.046Z,99732.95
2019-03-16T19:14:25.823Z,99728.80
2019-03-16T19:16:57.472Z,99725.58
2019-03-16T19:19:29.269Z,99715.72
2019-03-16T19:22:01.197Z,99719.53
2019-03-16T19:24:33.981Z,99720.16
2019-03-16T19:27:05.804Z,99709.83
2019-03-16T19:29:37.655Z,99703.44
2019-03-16T19:32:09.441Z,99707.45
2019-03-16T19:34:41.347Z,99705.37
2019-03-16T19:37:13.154Z,99701.53
2019-03-16T19:39:45.223Z,99697.75
2019-03-16T19:42:17.648Z,99702.16
2019-03-16T19:44:49.358Z,99698.78
2019-03-16T19:47:21.209Z,99691.05
2019-03-16T19:49:53.043Z,99690.84
2019-03-16T19:52:24.980Z,99692.03
2019-03-16T19:54:57.692Z,99696.69
2019-03-16T19:57:30.717Z,99697.33
2019-03-16T20:00:02.403Z,99691.56
2019-03-16T20:02:46.188Z,99692.27
2019-03-16T20:05:08.111Z,99688.13
2019-03-16T20:07:39.790Z,99686.88
2019-03-16T20:10:13.269Z,99677.09
2019-03-16T20:12:45.658Z,99678.27
2019-03-16T20:15:17.636Z,99679.84
2019-03-16T20:17:49.696Z,99680.83
2019-03-16T20:20:21.397Z,99680.16
2019-03-16T20:22:53.096Z,99678.56
2019-03-16T20:25:24.925Z,99673.92
2019-03-16T20:27:57.273Z,99672.71
2019-03-16T20:30:29.024Z,99675.25
2019-03-16T20:33:04.692Z,99672.44
2019-03-16T20:35:34.156Z,99672.59
2019-03-16T20:38:05.856Z,99665.43
2019-03-16T20:40:37.551Z,99664.36
2019-03-16T20:43:09.889Z,99666.95
2019-03-16T20:45:41.579Z,99660.64
2019-03-16T20:48:13.485Z,99664.02
2019-03-16T20:50:45.299Z,99668.05
2019-03-16T20:53:16.985Z,99660.72
2019-03-16T20:55:48.763Z,99663.41
2019-03-16T20:58:20.521Z,99663.57
2019-03-16T21:00:52.892Z,99661.87
2019-03-16T21:03:24.711Z,99662.79
2019-03-16T21:05:56.460Z,99655.39
2019-03-16T21:08:28.246Z,99650.45
2019-03-16T21:10:59.938Z,99647.14
2019-03-16T21:13:31.975Z,99647.14
2019-03-16T21:16:04.330Z,99640.59
2019-03-16T21:18:36.224Z,99638.82
2019-03-16T21:21:07.973Z,99637.05
2019-03-16T21:23:39.756Z,99633.02
2019-03-16T21:26:11.545Z,99633.13
2019-03-16T21:28:43.202Z,99623.62
2019-03-16T21:31:15.892Z,99624.48
2019-03-16T21:33:48.304Z,99628.48
2019-03-16T21:36:20.036Z,99622.41
2019-03-16T21:38:51.898Z,99607.84
2019-03-16T21:41:23.713Z,99610.20
2019-03-16T21:43:55.437Z,99605.66
2019-03-16T21:46:27.797Z,99600.59
2019-03-16T21:48:59.428Z,99603.43
2019-03-16T21:51:31.163Z,99605.33
2019-03-16T21:54:02.852Z,99603.66
2019-03-16T21:56:34.559Z,99604.12
2019-03-16T21:59:06.242Z,99615.11
2019-03-16T22:01:38.597Z,99609.58
2019-03-16T22:04:10.487Z,99605.33
2019-03-16T22:06:42.236Z,99597.86
2019-03-16T22:09:13.859Z,99592.46
2019-03-16T22:11:45.628Z,99589.39
2019-03-16T22:14:17.381Z,99596.39
2019-03-16T22:16:49.816Z,99592.13
2019-03-16T22:19:21.576Z,99591.38
2019-03-16T22:21:53.237Z,99588.43
2019-03-16T22:24:25.552Z,99594.64
2019-03-16T22:26:57.252Z,99582.08
2019-03-16T22:29:29.034Z,99578.70
2019-03-16T22:32:01.493Z,99581.78
2019-03-16T22:34:33.313Z,99573.83
2019-03-16T22:37:05.006Z,99577.13
2019-03-16T22:39:36.885Z,99573.72
2019-03-16T22:42:08.686Z,99573.25
2019-03-16T22:44:40.547Z,99563.28
2019-03-16T22:47:12.036Z,99562.53
2019-03-16T22:49:44.004Z,99561.66
2019-03-16T22:52:15.727Z,99550.41
2019-03-16T22:54:47.272Z,99548.64
2019-03-16T22:57:18.791Z,99550.23
2019-03-16T22:59:50.421Z,99544.05
2019-03-16T23:02:21.846Z,99538.37
2019-03-16T23:04:55.586Z,99530.91
2019-03-16T23:07:27.076Z,99531.31
2019-03-16T23:09:59.008Z,99524.77
2019-03-16T23:12:30.683Z,99519.94
2019-03-16T23:15:02.389Z,99518.53
2019-03-16T23:17:35.196Z,99515.55
2019-03-16T23:20:07.974Z,99511.30
2019-03-16T23:22:39.759Z,99512.41
2019-03-16T23:25:11.906Z,99508.53
2019-03-16T23:27:43.536Z,99495.98
2019-03-16T23:30:15.350Z,99492.58
2019-03-16T23:32:46.980Z,99491.66
2019-03-16T23:35:18.989Z,99486.38
2019-03-16T23:37:50.607Z,99484.06
2019-03-16T23:40:22.230Z,99487.06
2019-03-16T23:42:53.951Z,99481.08
2019-03-16T23:45:25.717Z,99472.52
2019-03-16T23:47:57.331Z,99468.14
2019-03-16T23:50:29.353Z,99462.00
2019-03-16T23:53:00.973Z,99466.77
2019-03-16T23:55:32.700Z,99459.90
2019-03-16T23:58:04.331Z,99460.00
